Flagstaff Pulliam Airport
KFLG : now visible

Airfield :











YOU CAN JOIN US ON...

 
LOGIN :

Register | Disclaimer

   EN    FR    IT 

 









Legend :    VFR   Marginal VFR   IFR   Intensive IFR   Very Intensive IFR
Visi :
Ceiling :
>= 8 km
>= 3000ft
5 to 8 km
1000 to 3000 ft
1500m to 5 km
500 to 1000 ft
800 to 1500m
200 to 500 ft
< 800m
< 200 ft
Symbols :   Thunderstorms  Fog  Heavy snow  Heavy precipitations  Wind > 20 kt






- Airport Elevation : 7014 ft
- IATA code : FLG


KFLG - Flagstaff Pulliam

CURRENT METAR :
  • 271357Z 00000KT 10SM CLR 11/00 A3025 RMK AO2 SLP152 T01110000

EXPIRED METARs :
  • 271257Z 00000KT 10SM CLR 04/M03 A3023 RMK AO2 SLP159 T00441033
  • 271157Z AUTO 00000KT 10SM CLR 03/M04 A3021 RMK AO2 SLP154 T00331039 10083 20033 55001
  • 271057Z AUTO 00000KT 10SM CLR 04/M04 A3021 RMK AO2 SLP151 T00441039
  • 270957Z AUTO 00000KT 10SM CLR 05/M04 A3022 RMK AO2 SLP152 T00501039

TAF KFLG
Valid from the 27 at 12:00 until the 28 at 12:00 UTC


271120Z 2712/2812 23004KT P6SM SKC
FM271700 21010G20KT P6SM FEW250
FM280300 24004KT P6SM SKC
KZAB FIR / North America



MET'MAP, your aeronautical weather chart ! - Copyright ORBIFLY December 2007 - Disclaimer

ORBIFLY MET'MAP TEAM :

Programming & Development : Alexandra Zaïnal
Original concept : Baudouin d'Aumeries
Technical & hardware support : Manuel Goepfert
Assistance : Marc-Olivier Méhu




SOURCES & CREDITS :

   NOAA       Earth
Advisory